地図

経路データ

SID SEASON NUMBER BASIN SUBBASIN NAME ISO_TIME NATURE LAT LON WMO_WIND WMO_PRES WMO_AGENCY TRACK_TYPE DIST2LAND LANDFALL IFLAG USA_AGENCY USA_ATCF_ID USA_LAT USA_LON USA_RECORD USA_STATUS USA_WIND USA_PRES USA_SSHS USA_R34_NE USA_R34_SE USA_R34_SW USA_R34_NW USA_R50_NE USA_R50_SE USA_R50_SW USA_R50_NW USA_R64_NE USA_R64_SE USA_R64_SW USA_R64_NW USA_POCI USA_ROCI USA_RMW USA_EYE TOKYO_LAT TOKYO_LON TOKYO_GRADE TOKYO_WIND TOKYO_PRES TOKYO_R50_DIR TOKYO_R50_LONG TOKYO_R50_SHORT TOKYO_R30_DIR TOKYO_R30_LONG TOKYO_R30_SHORT TOKYO_LAND CMA_LAT CMA_LON CMA_CAT CMA_WIND CMA_PRES HKO_LAT HKO_LON HKO_CAT HKO_WIND HKO_PRES NEWDELHI_LAT NEWDELHI_LON NEWDELHI_GRADE NEWDELHI_WIND NEWDELHI_PRES NEWDELHI_CI NEWDELHI_DP NEWDELHI_POCI REUNION_LAT REUNION_LON REUNION_TYPE REUNION_WIND REUNION_PRES REUNION_TNUM REUNION_CI REUNION_RMW REUNION_R34_NE REUNION_R34_SE REUNION_R34_SW REUNION_R34_NW REUNION_R50_NE REUNION_R50_SE REUNION_R50_SW REUNION_R50_NW REUNION_R64_NE REUNION_R64_SE REUNION_R64_SW REUNION_R64_NW BOM_LAT BOM_LON BOM_TYPE BOM_WIND BOM_PRES BOM_TNUM BOM_CI BOM_RMW BOM_R34_NE BOM_R34_SE BOM_R34_SW BOM_R34_NW BOM_R50_NE BOM_R50_SE BOM_R50_SW BOM_R50_NW BOM_R64_NE BOM_R64_SE BOM_R64_SW BOM_R64_NW BOM_ROCI BOM_POCI BOM_EYE BOM_POS_METHOD BOM_PRES_METHOD NADI_LAT NADI_LON NADI_CAT NADI_WIND NADI_PRES WELLINGTON_LAT WELLINGTON_LON WELLINGTON_WIND WELLINGTON_PRES DS824_LAT DS824_LON DS824_STAGE DS824_WIND DS824_PRES TD9636_LAT TD9636_LON TD9636_STAGE TD9636_WIND TD9636_PRES TD9635_LAT TD9635_LON TD9635_WIND TD9635_PRES TD9635_ROCI NEUMANN_LAT NEUMANN_LON NEUMANN_CLASS NEUMANN_WIND NEUMANN_PRES MLC_LAT MLC_LON MLC_CLASS MLC_WIND MLC_PRES USA_GUST BOM_GUST BOM_GUST_PER REUNION_GUST REUNION_GUST_PER USA_SEAHGT USA_SEARAD_NE USA_SEARAD_SE USA_SEARAD_SW USA_SEARAD_NW STORM_SPEED STORM_DIR
1927302N10091 1927 61 NI BB NOT_NAMED 1927-10-29 00:00:00 TS 10.2000 90.7000 main 715 715 _________O____ -1 10.2000 90.7000 TC 30 5 283
1927302N10091 1927 61 NI BB NOT_NAMED 1927-10-29 03:00:00 TS 10.2601 90.4350 main 746 746 _________PO___ -1 10.2901 90.3025 TC 30 10.2000 90.7000 1 7 285
1927302N10091 1927 61 NI BB NOT_NAMED 1927-10-29 06:00:00 TS 10.3684 90.0514 main 763 763 _________OP___ -1 10.4000 89.9000 TC 30 10.3209 90.2785 1 8 287
1927302N10091 1927 61 NI BB NOT_NAMED 1927-10-29 09:00:00 TS 10.4999 89.6523 main 781 781 _________PP___ -1 10.5425 89.4925 TC 30 10.4432 89.8654 1 8 289
1927302N10091 1927 61 NI BB NOT_NAMED 1927-10-29 12:00:00 TS 10.6344 89.2848 main 802 801 _________OP___ -1 10.7000 89.1000 TC 30 10.5689 89.4696 1 8 291
1927302N10091 1927 61 NI BB NOT_NAMED 1927-10-29 15:00:00 TS 10.7750 88.9212 main 817 817 _________PO___ -1 10.8499 88.7425 TC 31 10.7000 89.1000 1 8 292
1927302N10091 1927 61 NI BB NOT_NAMED 1927-10-29 18:00:00 TS 10.9192 88.5799 main 832 808 _________OP___ -1 11.0000 88.4000 TC 32 10.8383 88.7598 1 7 294
1927302N10091 1927 61 NI BB NOT_NAMED 1927-10-29 21:00:00 TS 11.0671 88.2510 main 813 778 _________PP___ -1 11.1499 88.0724 TC 33 10.9844 88.4296 1 7 294
1927302N10091 1927 61 NI BB NOT_NAMED 1927-10-30 00:00:00 TS 11.2191 87.8923 main 778 743 _________OP___ -1 11.3000 87.7000 TC 34 11.1383 88.0847 1 8 291
1927302N10091 1927 61 NI BB NOT_NAMED 1927-10-30 03:00:00 TS 11.3713 87.4612 main 748 705 _________PO___ -1 11.4425 87.2224 TC 36 11.3000 87.7000 2 10 289
1927302N10091 1927 61 NI BB NOT_NAMED 1927-10-30 06:00:00 TS 11.5340 86.9675 main 705 669 _________OP___ -1 11.6000 86.7000 TC 39 11.4680 87.2350 2 10 290
1927302N10091 1927 61 NI BB NOT_NAMED 1927-10-30 09:00:00 TS 11.7213 86.4613 main 669 634 _________PP___ -1 11.8000 86.1925 TC 42 11.6427 86.7300 2 11 291
1927302N10091 1927 61 NI BB NOT_NAMED 1927-10-30 12:00:00 TS 11.9105 85.9550 main 634 577 _________OP___ -1 12.0000 85.7000 TC 45 11.8211 86.2100 2 10 290
1927302N10091 1927 61 NI BB NOT_NAMED 1927-10-30 15:00:00 TS 12.0749 85.4712 main 577 522 _________PO___ -1 12.1499 85.2424 TC 45 12.0000 85.7000 3 10 290
1927302N10091 1927 61 NI BB NOT_NAMED 1927-10-30 18:00:00 TS 12.2415 85.0097 main 522 477 _________OP___ -1 12.3000 84.8000 TC 45 12.1830 85.2194 3 10 292
1927302N10091 1927 61 NI BB NOT_NAMED 1927-10-30 21:00:00 TS 12.4362 84.5450 main 466 419 _________PP___ -1 12.5075 84.3351 TC 45 12.3648 84.7550 3 10 293
1927302N10091 1927 61 NI BB NOT_NAMED 1927-10-31 00:00:00 TS 12.6196 84.1066 main 419 374 _________OP___ -1 12.7000 83.9000 TC 45 12.5393 84.3131 3 9 291
1927302N10091 1927 61 NI BB NOT_NAMED 1927-10-31 03:00:00 TS 12.7537 83.7174 main 372 338 _________PO___ -1 12.8074 83.5349 TC 49 12.7000 83.9000 3 8 289
1927302N10091 1927 61 NI BB NOT_NAMED 1927-10-31 06:00:00 TS 12.8613 83.3705 main 338 305 _________OP___ -1 12.9000 83.2000 TC 54 12.8226 83.5410 3 7 289
1927302N10091 1927 61 NI BB NOT_NAMED 1927-10-31 09:00:00 TS 12.9845 83.0395 main 294 260 _________PP___ -1 13.0348 82.8724 TC 59 12.9342 83.2067 3 7 292
1927302N10091 1927 61 NI BB NOT_NAMED 1927-10-31 12:00:00 TS 13.1269 82.6845 main 260 216 _________OP___ -1 13.2000 82.5000 TC 64 13.0538 82.8691 3 8 292
1927302N10091 1927 61 NI BB NOT_NAMED 1927-10-31 15:00:00 TS 13.2925 82.2575 main 216 162 _________PO___ -1 13.3851 82.0150 TC 64 13.2000 82.5000 4 10 293
1927302N10091 1927 61 NI BB NOT_NAMED 1927-10-31 18:00:00 TS 13.5002 81.7785 main 162 108 _________OP___ -1 13.6000 81.5000 TC 64 13.4004 82.0571 4 10 296
1927302N10091 1927 61 NI BB NOT_NAMED 1927-10-31 21:00:00 TS 13.7387 81.3113 main 108 65 _________PP___ -1 13.8499 81.0425 TC 64 13.6276 81.5802 4 10 298
1927302N10091 1927 61 NI BB NOT_NAMED 1927-11-01 00:00:00 TS 13.9830 80.8441 main 58 32 _________OP___ -1 14.1000 80.6000 TC 64 13.8660 81.0882 4 10 297
1927302N10091 1927 61 NI BB NOT_NAMED 1927-11-01 03:00:00 TS 14.2037 80.3749 main 32 0 _________PO___ -1 14.3074 80.1499 TC 59 14.1000 80.6000 4 10 295
1927302N10091 1927 61 NI BB NOT_NAMED 1927-11-01 06:00:00 TS 14.4015 79.9152 main 0 0 _________OP___ -1 14.5000 79.7000 TC 54 14.3030 80.1303 4 10 294
1927302N10091 1927 61 NI BB NOT_NAMED 1927-11-01 09:00:00 TS 14.5999 79.4560 main 0 0 _________PP___ -1 14.7000 79.2424 TC 49 14.4998 79.6696 4 10 294
1927302N10091 1927 61 NI BB NOT_NAMED 1927-11-01 12:00:00 TS 14.7984 79.0121 main 0 0 _________OP___ -1 14.9000 78.8000 TC 45 14.6967 79.2241 4 9 295
1927302N10091 1927 61 NI BB NOT_NAMED 1927-11-01 15:00:00 TS 14.9962 78.5924 main 0 0 _________PO___ -1 15.0924 78.3849 TC 41 14.9000 78.8000 3 9 297
1927302N10091 1927 61 NI BB NOT_NAMED 1927-11-01 18:00:00 TS 15.2005 78.2075 main 0 0 _________OP___ -1 15.3000 78.0000 TC 37 15.1010 78.4150 3 8 301
1927302N10091 1927 61 NI AS NOT_NAMED 1927-11-01 21:00:00 TS 15.4233 77.8532 main 0 0 _________PP___ -1 15.5348 77.6573 TC 33 15.3118 78.0491 3 8 304
1927302N10091 1927 61 NI AS NOT_NAMED 1927-11-02 00:00:00 TS 15.6708 77.4918 main 0 0 _________OP___ -1 15.8000 77.3000 TC 30 15.5417 77.6836 3 9 305
1927302N10091 1927 61 NI AS NOT_NAMED 1927-11-02 03:00:00 TS 15.9425 77.0825 main 0 0 _________PO___ -1 16.0850 76.8649 TC 30 15.8000 77.3000 1 10 304
1927302N10091 1927 61 NI AS NOT_NAMED 1927-11-02 06:00:00 TS 16.2423 76.6157 main 0 0 _________OP___ -1 16.4000 76.4000 TC 30 16.0845 76.8313 1 11 305
1927302N10091 1927 61 NI AS NOT_NAMED 1927-11-02 09:00:00 TS 16.5704 76.1341 main 0 0 _________PP___ -1 16.7426 75.9201 TC 30 16.3982 76.3481 1 11 308
1927302N10091 1927 61 NI AS NOT_NAMED 1927-11-02 12:00:00 TS 16.9188 75.6954 main 0 0 _________OP___ -1 17.1000 75.5000 TC 30 16.7377 75.8907 1 10 313
1927302N10091 1927 61 NI AS NOT_NAMED 1927-11-02 15:00:00 TS 17.2674 75.3524 main 0 0 _________PO___ -1 17.4349 75.2048 TC 30 17.1000 75.5000 1 9 322
1927302N10091 1927 61 NI AS NOT_NAMED 1927-11-02 18:00:00 TS 17.6183 75.1175 main 0 0 _________OP___ -1 17.8000 75.0000 TC 30 17.4821 75.2057 1 9 332
1927302N10091 1927 61 NI AS NOT_NAMED 1927-11-02 21:00:00 TS 18.0197 74.9315 main 0 0 _________PP___ -1 18.2301 74.8402 TC 30 17.8794 74.9923 1 9 339
1927302N10091 1927 61 NI AS NOT_NAMED 1927-11-03 00:00:00 TS 18.4248 74.7885 main 0 0 _________OP___ -1 18.7000 74.7000 TC 30 18.2871 74.8328 1 7 342
1927302N10091 1927 61 NI AS NOT_NAMED 1927-11-03 03:00:00 NR 18.7000 74.7000 main 0 __________O___ -1 TC 18.7000 74.7000 1 6 345

IBTrACS Databaseについて

本データベースは、米国NOAAが公開する1842年以降の世界の熱帯低気圧のベストトラックデータアーカイブInternational Best Track Archive for Climate Stewardship (IBTrACS)を、ウェブで閲覧しやすい形式に変換したものです。

最終更新日:2021-10-19